sensor_id;sensor_type;location;lat;lon;timestamp;P1;durP1;ratioP1;P2;durP2;ratioP2
55069;SDS011;40967;52.070;8.596;2023-05-20T00:00:33;0.47;;;0.30;;
55069;SDS011;40967;52.070;8.596;2023-05-20T00:02:59;0.97;;;0.40;;
55069;SDS011;40967;52.070;8.596;2023-05-20T00:05:24;0.70;;;0.30;;
55069;SDS011;40967;52.070;8.596;2023-05-20T00:07:50;0.98;;;0.40;;
55069;SDS011;40967;52.070;8.596;2023-05-20T00:10:15;0.60;;;0.30;;
55069;SDS011;40967;52.070;8.596;2023-05-20T00:12:47;0.80;;;0.37;;
55069;SDS011;40967;52.070;8.596;2023-05-20T00:15:12;0.50;;;0.30;;
55069;SDS011;40967;52.070;8.596;2023-05-20T00:17:38;0.50;;;0.40;;
55069;SDS011;40967;52.070;8.596;2023-05-20T00:20:03;0.70;;;0.40;;
55069;SDS011;40967;52.070;8.596;2023-05-20T00:22:29;0.50;;;0.30;;
55069;SDS011;40967;52.070;8.596;2023-05-20T00:24:55;1.10;;;0.45;;
55069;SDS011;40967;52.070;8.596;2023-05-20T00:27:21;1.23;;;0.40;;
55069;SDS011;40967;52.070;8.596;2023-05-20T00:29:46;0.90;;;0.43;;
55069;SDS011;40967;52.070;8.596;2023-05-20T00:32:12;0.80;;;0.50;;
55069;SDS011;40967;52.070;8.596;2023-05-20T00:34:38;0.95;;;0.50;;
55069;SDS011;40967;52.070;8.596;2023-05-20T00:37:07;0.75;;;0.30;;
55069;SDS011;40967;52.070;8.596;2023-05-20T00:39:32;0.60;;;0.30;;
55069;SDS011;40967;52.070;8.596;2023-05-20T00:41:58;0.80;;;0.30;;
55069;SDS011;40967;52.070;8.596;2023-05-20T00:44:26;0.50;;;0.40;;
55069;SDS011;40967;52.070;8.596;2023-05-20T00:46:52;0.70;;;0.40;;
55069;SDS011;40967;52.070;8.596;2023-05-20T00:49:18;0.90;;;0.40;;
55069;SDS011;40967;52.070;8.596;2023-05-20T00:51:43;0.67;;;0.30;;
55069;SDS011;40967;52.070;8.596;2023-05-20T00:54:09;1.00;;;0.40;;
55069;SDS011;40967;52.070;8.596;2023-05-20T00:56:35;1.08;;;0.40;;
55069;SDS011;40967;52.070;8.596;2023-05-20T00:59:01;0.90;;;0.50;;
55069;SDS011;40967;52.070;8.596;2023-05-20T01:01:26;1.00;;;0.50;;
55069;SDS011;40967;52.070;8.596;2023-05-20T01:03:52;1.20;;;0.50;;
55069;SDS011;40967;52.070;8.596;2023-05-20T01:06:17;0.70;;;0.40;;
55069;SDS011;40967;52.070;8.596;2023-05-20T01:08:43;0.80;;;0.40;;
55069;SDS011;40967;52.070;8.596;2023-05-20T01:11:12;1.00;;;0.50;;
55069;SDS011;40967;52.070;8.596;2023-05-20T01:13:46;0.63;;;0.32;;
55069;SDS011;40967;52.070;8.596;2023-05-20T01:16:16;1.98;;;0.60;;
55069;SDS011;40967;52.070;8.596;2023-05-20T01:18:44;0.85;;;0.50;;
55069;SDS011;40967;52.070;8.596;2023-05-20T01:21:12;0.90;;;0.50;;
55069;SDS011;40967;52.070;8.596;2023-05-20T01:23:40;1.33;;;0.50;;
55069;SDS011;40967;52.070;8.596;2023-05-20T01:26:06;1.40;;;0.50;;
55069;SDS011;40967;52.070;8.596;2023-05-20T01:28:35;0.63;;;0.40;;
55069;SDS011;40967;52.070;8.596;2023-05-20T01:31:03;0.80;;;0.50;;
55069;SDS011;40967;52.070;8.596;2023-05-20T01:33:34;0.57;;;0.40;;
55069;SDS011;40967;52.070;8.596;2023-05-20T01:36:01;1.17;;;0.52;;
55069;SDS011;40967;52.070;8.596;2023-05-20T01:38:27;1.00;;;0.50;;
55069;SDS011;40967;52.070;8.596;2023-05-20T01:40:54;1.00;;;0.55;;
55069;SDS011;40967;52.070;8.596;2023-05-20T01:43:25;1.43;;;0.60;;
55069;SDS011;40967;52.070;8.596;2023-05-20T01:45:51;1.00;;;0.50;;
55069;SDS011;40967;52.070;8.596;2023-05-20T01:48:16;0.93;;;0.50;;
55069;SDS011;40967;52.070;8.596;2023-05-20T01:50:41;1.27;;;0.50;;
55069;SDS011;40967;52.070;8.596;2023-05-20T01:53:07;1.10;;;0.50;;
55069;SDS011;40967;52.070;8.596;2023-05-20T01:55:33;0.55;;;0.40;;
55069;SDS011;40967;52.070;8.596;2023-05-20T01:57:59;2.00;;;0.63;;
55069;SDS011;40967;52.070;8.596;2023-05-20T02:00:25;1.47;;;0.60;;
55069;SDS011;40967;52.070;8.596;2023-05-20T02:02:51;1.00;;;0.43;;
55069;SDS011;40967;52.070;8.596;2023-05-20T02:05:16;1.30;;;0.60;;
55069;SDS011;40967;52.070;8.596;2023-05-20T02:07:42;1.38;;;0.57;;
55069;SDS011;40967;52.070;8.596;2023-05-20T02:10:08;2.17;;;0.50;;
55069;SDS011;40967;52.070;8.596;2023-05-20T02:12:34;1.17;;;0.50;;
55069;SDS011;40967;52.070;8.596;2023-05-20T02:14:59;1.13;;;0.63;;
55069;SDS011;40967;52.070;8.596;2023-05-20T02:17:25;1.10;;;0.50;;
55069;SDS011;40967;52.070;8.596;2023-05-20T02:19:50;1.13;;;0.60;;
55069;SDS011;40967;52.070;8.596;2023-05-20T02:22:16;0.93;;;0.60;;
55069;SDS011;40967;52.070;8.596;2023-05-20T02:24:42;0.73;;;0.40;;
55069;SDS011;40967;52.070;8.596;2023-05-20T02:27:07;0.82;;;0.45;;
55069;SDS011;40967;52.070;8.596;2023-05-20T02:29:33;0.83;;;0.47;;
55069;SDS011;40967;52.070;8.596;2023-05-20T02:31:59;0.75;;;0.45;;
55069;SDS011;40967;52.070;8.596;2023-05-20T02:34:24;1.30;;;0.70;;
55069;SDS011;40967;52.070;8.596;2023-05-20T02:36:50;0.97;;;0.50;;
55069;SDS011;40967;52.070;8.596;2023-05-20T02:39:16;1.70;;;0.70;;
55069;SDS011;40967;52.070;8.596;2023-05-20T02:41:42;0.98;;;0.50;;
55069;SDS011;40967;52.070;8.596;2023-05-20T02:44:07;1.33;;;0.55;;
55069;SDS011;40967;52.070;8.596;2023-05-20T02:46:33;1.40;;;0.70;;
55069;SDS011;40967;52.070;8.596;2023-05-20T02:48:58;1.07;;;0.60;;
55069;SDS011;40967;52.070;8.596;2023-05-20T02:51:24;1.30;;;0.60;;
55069;SDS011;40967;52.070;8.596;2023-05-20T02:53:49;1.23;;;0.50;;
55069;SDS011;40967;52.070;8.596;2023-05-20T02:56:15;1.20;;;0.50;;
55069;SDS011;40967;52.070;8.596;2023-05-20T02:58:40;1.10;;;0.60;;
55069;SDS011;40967;52.070;8.596;2023-05-20T03:01:06;1.33;;;0.63;;
55069;SDS011;40967;52.070;8.596;2023-05-20T03:03:31;1.03;;;0.50;;
55069;SDS011;40967;52.070;8.596;2023-05-20T03:05:57;1.33;;;0.65;;
55069;SDS011;40967;52.070;8.596;2023-05-20T03:08:23;1.27;;;0.60;;
55069;SDS011;40967;52.070;8.596;2023-05-20T03:10:49;0.90;;;0.50;;
55069;SDS011;40967;52.070;8.596;2023-05-20T03:13:14;1.70;;;0.70;;
55069;SDS011;40967;52.070;8.596;2023-05-20T03:15:40;1.20;;;0.60;;
55069;SDS011;40967;52.070;8.596;2023-05-20T03:18:06;1.80;;;0.80;;
55069;SDS011;40967;52.070;8.596;2023-05-20T03:20:35;1.60;;;0.60;;
55069;SDS011;40967;52.070;8.596;2023-05-20T03:23:01;1.33;;;0.60;;
55069;SDS011;40967;52.070;8.596;2023-05-20T03:25:29;1.80;;;0.77;;
55069;SDS011;40967;52.070;8.596;2023-05-20T03:27:55;1.33;;;0.57;;
55069;SDS011;40967;52.070;8.596;2023-05-20T03:30:22;1.08;;;0.50;;
55069;SDS011;40967;52.070;8.596;2023-05-20T03:32:48;1.00;;;0.60;;
55069;SDS011;40967;52.070;8.596;2023-05-20T03:35:13;1.30;;;0.70;;
55069;SDS011;40967;52.070;8.596;2023-05-20T03:37:42;0.63;;;0.40;;
55069;SDS011;40967;52.070;8.596;2023-05-20T03:40:08;1.03;;;0.50;;
55069;SDS011;40967;52.070;8.596;2023-05-20T03:42:36;0.80;;;0.40;;
55069;SDS011;40967;52.070;8.596;2023-05-20T03:45:03;2.28;;;0.90;;
55069;SDS011;40967;52.070;8.596;2023-05-20T03:47:29;1.27;;;0.60;;
55069;SDS011;40967;52.070;8.596;2023-05-20T03:49:54;0.90;;;0.50;;
55069;SDS011;40967;52.070;8.596;2023-05-20T03:52:20;1.57;;;0.80;;
55069;SDS011;40967;52.070;8.596;2023-05-20T03:54:46;1.90;;;0.65;;
55069;SDS011;40967;52.070;8.596;2023-05-20T03:57:11;1.40;;;0.60;;
55069;SDS011;40967;52.070;8.596;2023-05-20T03:59:37;1.17;;;0.60;;
55069;SDS011;40967;52.070;8.596;2023-05-20T04:02:02;2.22;;;0.68;;
55069;SDS011;40967;52.070;8.596;2023-05-20T04:04:29;0.88;;;0.60;;
55069;SDS011;40967;52.070;8.596;2023-05-20T04:06:56;1.13;;;0.63;;
55069;SDS011;40967;52.070;8.596;2023-05-20T04:09:24;1.48;;;0.75;;
55069;SDS011;40967;52.070;8.596;2023-05-20T04:11:50;1.58;;;0.73;;
55069;SDS011;40967;52.070;8.596;2023-05-20T04:14:15;1.20;;;0.60;;
55069;SDS011;40967;52.070;8.596;2023-05-20T04:16:41;1.70;;;0.90;;
55069;SDS011;40967;52.070;8.596;2023-05-20T04:19:07;1.45;;;0.82;;
55069;SDS011;40967;52.070;8.596;2023-05-20T04:21:32;1.70;;;0.83;;
55069;SDS011;40967;52.070;8.596;2023-05-20T04:23:58;1.40;;;0.60;;
55069;SDS011;40967;52.070;8.596;2023-05-20T04:26:23;1.48;;;0.70;;
55069;SDS011;40967;52.070;8.596;2023-05-20T04:28:49;1.10;;;0.80;;
55069;SDS011;40967;52.070;8.596;2023-05-20T04:31:15;1.65;;;0.80;;
55069;SDS011;40967;52.070;8.596;2023-05-20T04:33:40;1.10;;;0.67;;
55069;SDS011;40967;52.070;8.596;2023-05-20T04:36:08;1.88;;;0.70;;
55069;SDS011;40967;52.070;8.596;2023-05-20T04:38:36;2.03;;;0.77;;
55069;SDS011;40967;52.070;8.596;2023-05-20T04:41:03;1.25;;;0.70;;
55069;SDS011;40967;52.070;8.596;2023-05-20T04:43:32;1.40;;;0.70;;
55069;SDS011;40967;52.070;8.596;2023-05-20T04:45:58;1.00;;;0.60;;
55069;SDS011;40967;52.070;8.596;2023-05-20T04:48:25;1.23;;;0.70;;
55069;SDS011;40967;52.070;8.596;2023-05-20T04:50:51;1.30;;;0.70;;
55069;SDS011;40967;52.070;8.596;2023-05-20T04:53:18;1.50;;;0.70;;
55069;SDS011;40967;52.070;8.596;2023-05-20T04:55:45;1.43;;;0.80;;
55069;SDS011;40967;52.070;8.596;2023-05-20T04:58:12;1.75;;;0.82;;
55069;SDS011;40967;52.070;8.596;2023-05-20T05:00:41;2.13;;;0.85;;
55069;SDS011;40967;52.070;8.596;2023-05-20T05:03:10;1.43;;;0.80;;
55069;SDS011;40967;52.070;8.596;2023-05-20T05:05:39;1.42;;;0.70;;
55069;SDS011;40967;52.070;8.596;2023-05-20T05:08:06;1.20;;;0.60;;
55069;SDS011;40967;52.070;8.596;2023-05-20T05:10:32;1.42;;;0.60;;
55069;SDS011;40967;52.070;8.596;2023-05-20T05:12:58;1.23;;;0.60;;
55069;SDS011;40967;52.070;8.596;2023-05-20T05:15:24;1.60;;;0.87;;
55069;SDS011;40967;52.070;8.596;2023-05-20T05:17:49;2.22;;;0.85;;
55069;SDS011;40967;52.070;8.596;2023-05-20T05:20:15;1.73;;;0.70;;
55069;SDS011;40967;52.070;8.596;2023-05-20T05:22:41;2.20;;;0.77;;
55069;SDS011;40967;52.070;8.596;2023-05-20T05:25:07;1.07;;;0.70;;
55069;SDS011;40967;52.070;8.596;2023-05-20T05:27:33;1.05;;;0.60;;
55069;SDS011;40967;52.070;8.596;2023-05-20T05:30:00;1.73;;;0.80;;
55069;SDS011;40967;52.070;8.596;2023-05-20T05:32:26;1.30;;;0.73;;
55069;SDS011;40967;52.070;8.596;2023-05-20T05:34:51;1.57;;;0.70;;
55069;SDS011;40967;52.070;8.596;2023-05-20T05:37:16;1.27;;;0.70;;
55069;SDS011;40967;52.070;8.596;2023-05-20T05:39:42;1.57;;;0.77;;
55069;SDS011;40967;52.070;8.596;2023-05-20T05:42:07;1.80;;;0.90;;
55069;SDS011;40967;52.070;8.596;2023-05-20T05:44:33;1.38;;;0.70;;
55069;SDS011;40967;52.070;8.596;2023-05-20T05:46:59;2.00;;;0.93;;
55069;SDS011;40967;52.070;8.596;2023-05-20T05:49:24;1.63;;;0.70;;
55069;SDS011;40967;52.070;8.596;2023-05-20T05:51:50;1.27;;;0.70;;
55069;SDS011;40967;52.070;8.596;2023-05-20T05:54:15;1.27;;;0.63;;
55069;SDS011;40967;52.070;8.596;2023-05-20T05:56:40;1.27;;;0.73;;
55069;SDS011;40967;52.070;8.596;2023-05-20T05:59:06;1.45;;;0.73;;
55069;SDS011;40967;52.070;8.596;2023-05-20T06:01:34;1.08;;;0.60;;
55069;SDS011;40967;52.070;8.596;2023-05-20T06:04:01;1.15;;;0.63;;
55069;SDS011;40967;52.070;8.596;2023-05-20T06:06:26;1.60;;;0.70;;
55069;SDS011;40967;52.070;8.596;2023-05-20T06:08:52;1.45;;;0.70;;
55069;SDS011;40967;52.070;8.596;2023-05-20T06:11:17;1.90;;;0.73;;
55069;SDS011;40967;52.070;8.596;2023-05-20T06:13:49;1.87;;;0.70;;
55069;SDS011;40967;52.070;8.596;2023-05-20T06:16:28;1.65;;;0.75;;
55069;SDS011;40967;52.070;8.596;2023-05-20T06:18:53;1.10;;;0.60;;
55069;SDS011;40967;52.070;8.596;2023-05-20T06:21:22;1.90;;;0.80;;
55069;SDS011;40967;52.070;8.596;2023-05-20T06:23:48;1.40;;;0.73;;
55069;SDS011;40967;52.070;8.596;2023-05-20T06:26:16;1.83;;;0.82;;
55069;SDS011;40967;52.070;8.596;2023-05-20T06:28:41;3.60;;;1.00;;
55069;SDS011;40967;52.070;8.596;2023-05-20T06:31:10;2.80;;;0.90;;
55069;SDS011;40967;52.070;8.596;2023-05-20T06:33:35;2.72;;;1.05;;
55069;SDS011;40967;52.070;8.596;2023-05-20T06:36:01;1.20;;;0.70;;
55069;SDS011;40967;52.070;8.596;2023-05-20T06:38:26;1.83;;;0.80;;
55069;SDS011;40967;52.070;8.596;2023-05-20T06:40:52;1.53;;;0.80;;
55069;SDS011;40967;52.070;8.596;2023-05-20T06:43:17;2.20;;;1.00;;
55069;SDS011;40967;52.070;8.596;2023-05-20T06:45:48;1.30;;;0.70;;
55069;SDS011;40967;52.070;8.596;2023-05-20T06:48:14;1.25;;;0.75;;
55069;SDS011;40967;52.070;8.596;2023-05-20T06:50:40;1.30;;;0.80;;
55069;SDS011;40967;52.070;8.596;2023-05-20T06:53:05;2.20;;;0.90;;
55069;SDS011;40967;52.070;8.596;2023-05-20T06:55:31;2.60;;;0.90;;
55069;SDS011;40967;52.070;8.596;2023-05-20T06:57:56;1.80;;;0.90;;
55069;SDS011;40967;52.070;8.596;2023-05-20T07:00:22;1.93;;;0.90;;
55069;SDS011;40967;52.070;8.596;2023-05-20T07:02:47;2.20;;;0.90;;
55069;SDS011;40967;52.070;8.596;2023-05-20T07:05:13;1.77;;;1.00;;
55069;SDS011;40967;52.070;8.596;2023-05-20T07:07:38;2.27;;;1.03;;
55069;SDS011;40967;52.070;8.596;2023-05-20T07:10:04;2.03;;;1.10;;
55069;SDS011;40967;52.070;8.596;2023-05-20T07:12:30;2.47;;;1.23;;
55069;SDS011;40967;52.070;8.596;2023-05-20T07:14:56;2.87;;;1.20;;
55069;SDS011;40967;52.070;8.596;2023-05-20T07:17:25;1.90;;;1.00;;
55069;SDS011;40967;52.070;8.596;2023-05-20T07:19:51;2.22;;;1.10;;
55069;SDS011;40967;52.070;8.596;2023-05-20T07:22:16;2.15;;;1.00;;
55069;SDS011;40967;52.070;8.596;2023-05-20T07:24:42;2.00;;;1.02;;
55069;SDS011;40967;52.070;8.596;2023-05-20T07:27:07;2.93;;;1.47;;
55069;SDS011;40967;52.070;8.596;2023-05-20T07:29:33;3.00;;;1.20;;
55069;SDS011;40967;52.070;8.596;2023-05-20T07:31:59;2.45;;;1.08;;
55069;SDS011;40967;52.070;8.596;2023-05-20T07:34:25;2.60;;;1.20;;
55069;SDS011;40967;52.070;8.596;2023-05-20T07:36:50;3.37;;;1.57;;
55069;SDS011;40967;52.070;8.596;2023-05-20T07:39:17;2.80;;;1.27;;
55069;SDS011;40967;52.070;8.596;2023-05-20T07:41:42;2.80;;;1.30;;
55069;SDS011;40967;52.070;8.596;2023-05-20T07:44:08;1.73;;;0.93;;
55069;SDS011;40967;52.070;8.596;2023-05-20T07:46:35;2.97;;;1.40;;
55069;SDS011;40967;52.070;8.596;2023-05-20T07:49:02;2.47;;;1.17;;
55069;SDS011;40967;52.070;8.596;2023-05-20T07:51:28;2.33;;;1.13;;
55069;SDS011;40967;52.070;8.596;2023-05-20T07:53:53;2.50;;;1.10;;
55069;SDS011;40967;52.070;8.596;2023-05-20T07:56:19;1.88;;;1.10;;
55069;SDS011;40967;52.070;8.596;2023-05-20T07:58:51;1.70;;;0.82;;
55069;SDS011;40967;52.070;8.596;2023-05-20T08:01:17;1.48;;;0.82;;
55069;SDS011;40967;52.070;8.596;2023-05-20T08:03:43;1.90;;;0.90;;
55069;SDS011;40967;52.070;8.596;2023-05-20T08:06:11;2.20;;;1.20;;
55069;SDS011;40967;52.070;8.596;2023-05-20T08:08:36;1.50;;;0.90;;
55069;SDS011;40967;52.070;8.596;2023-05-20T08:11:04;2.42;;;1.15;;
55069;SDS011;40967;52.070;8.596;2023-05-20T08:13:29;2.63;;;1.17;;
55069;SDS011;40967;52.070;8.596;2023-05-20T08:15:55;2.03;;;1.10;;
55069;SDS011;40967;52.070;8.596;2023-05-20T08:18:21;2.63;;;1.33;;
55069;SDS011;40967;52.070;8.596;2023-05-20T08:20:46;1.80;;;1.00;;
55069;SDS011;40967;52.070;8.596;2023-05-20T08:23:12;2.40;;;0.80;;
55069;SDS011;40967;52.070;8.596;2023-05-20T08:25:37;2.43;;;1.00;;
55069;SDS011;40967;52.070;8.596;2023-05-20T08:28:03;1.40;;;0.80;;
55069;SDS011;40967;52.070;8.596;2023-05-20T08:30:32;1.48;;;0.70;;
55069;SDS011;40967;52.070;8.596;2023-05-20T08:32:58;1.85;;;0.70;;
55069;SDS011;40967;52.070;8.596;2023-05-20T08:35:24;2.15;;;0.88;;
55069;SDS011;40967;52.070;8.596;2023-05-20T08:37:50;1.25;;;0.80;;
55069;SDS011;40967;52.070;8.596;2023-05-20T08:40:18;1.70;;;0.80;;
55069;SDS011;40967;52.070;8.596;2023-05-20T08:42:45;1.70;;;0.80;;
55069;SDS011;40967;52.070;8.596;2023-05-20T08:45:13;1.20;;;0.70;;
55069;SDS011;40967;52.070;8.596;2023-05-20T08:47:50;2.13;;;0.80;;
55069;SDS011;40967;52.070;8.596;2023-05-20T08:50:16;2.45;;;0.90;;
55069;SDS011;40967;52.070;8.596;2023-05-20T08:52:42;2.90;;;0.80;;
55069;SDS011;40967;52.070;8.596;2023-05-20T08:55:48;1.50;;;0.77;;
55069;SDS011;40967;52.070;8.596;2023-05-20T08:58:17;2.72;;;0.88;;
55069;SDS011;40967;52.070;8.596;2023-05-20T09:00:43;2.57;;;0.90;;
55069;SDS011;40967;52.070;8.596;2023-05-20T09:03:09;1.98;;;1.00;;
55069;SDS011;40967;52.070;8.596;2023-05-20T09:05:35;2.57;;;0.93;;
55069;SDS011;40967;52.070;8.596;2023-05-20T09:08:09;1.63;;;0.80;;
55069;SDS011;40967;52.070;8.596;2023-05-20T09:10:36;1.33;;;0.75;;
55069;SDS011;40967;52.070;8.596;2023-05-20T09:13:04;2.40;;;0.77;;
55069;SDS011;40967;52.070;8.596;2023-05-20T09:15:31;1.65;;;0.70;;
55069;SDS011;40967;52.070;8.596;2023-05-20T09:18:04;1.70;;;0.85;;
55069;SDS011;40967;52.070;8.596;2023-05-20T09:20:36;2.05;;;0.93;;
55069;SDS011;40967;52.070;8.596;2023-05-20T09:23:03;1.98;;;0.77;;
55069;SDS011;40967;52.070;8.596;2023-05-20T09:25:33;1.33;;;0.60;;
55069;SDS011;40967;52.070;8.596;2023-05-20T09:27:59;2.10;;;0.80;;
55069;SDS011;40967;52.070;8.596;2023-05-20T09:30:25;2.33;;;0.80;;
55069;SDS011;40967;52.070;8.596;2023-05-20T09:33:03;1.73;;;0.70;;
55069;SDS011;40967;52.070;8.596;2023-05-20T09:36:22;1.15;;;0.60;;
55069;SDS011;40967;52.070;8.596;2023-05-20T09:39:00;1.83;;;0.88;;
55069;SDS011;40967;52.070;8.596;2023-05-20T09:44:52;1.38;;;0.60;;
55069;SDS011;40967;52.070;8.596;2023-05-20T09:47:18;1.08;;;0.60;;
55069;SDS011;40967;52.070;8.596;2023-05-20T09:49:47;2.40;;;0.80;;
55069;SDS011;40967;52.070;8.596;2023-05-20T09:52:14;1.70;;;0.82;;
55069;SDS011;40967;52.070;8.596;2023-05-20T09:54:48;1.60;;;0.80;;
55069;SDS011;40967;52.070;8.596;2023-05-20T09:57:14;1.58;;;0.90;;
55069;SDS011;40967;52.070;8.596;2023-05-20T09:59:40;1.47;;;0.73;;
55069;SDS011;40967;52.070;8.596;2023-05-20T10:02:06;1.25;;;0.70;;
55069;SDS011;40967;52.070;8.596;2023-05-20T10:04:33;2.33;;;0.80;;
55069;SDS011;40967;52.070;8.596;2023-05-20T10:20:48;2.00;;;1.02;;
55069;SDS011;40967;52.070;8.596;2023-05-20T10:25:54;1.55;;;0.80;;
55069;SDS011;40967;52.070;8.596;2023-05-20T10:28:32;2.30;;;1.20;;
55069;SDS011;40967;52.070;8.596;2023-05-20T10:31:00;2.33;;;1.00;;
55069;SDS011;40967;52.070;8.596;2023-05-20T10:33:46;1.95;;;1.15;;
55069;SDS011;40967;52.070;8.596;2023-05-20T10:36:24;1.98;;;1.17;;
55069;SDS011;40967;52.070;8.596;2023-05-20T10:38:54;1.90;;;1.10;;
55069;SDS011;40967;52.070;8.596;2023-05-20T10:41:22;2.20;;;1.20;;
55069;SDS011;40967;52.070;8.596;2023-05-20T10:44:00;2.77;;;1.20;;
55069;SDS011;40967;52.070;8.596;2023-05-20T10:46:27;2.47;;;1.20;;
55069;SDS011;40967;52.070;8.596;2023-05-20T10:48:53;2.63;;;1.17;;
55069;SDS011;40967;52.070;8.596;2023-05-20T10:51:18;2.53;;;1.33;;
55069;SDS011;40967;52.070;8.596;2023-05-20T10:53:45;2.97;;;1.35;;
55069;SDS011;40967;52.070;8.596;2023-05-20T10:56:49;2.30;;;1.20;;
55069;SDS011;40967;52.070;8.596;2023-05-20T10:59:09;2.25;;;1.20;;
55069;SDS011;40967;52.070;8.596;2023-05-20T11:01:35;1.88;;;1.23;;
55069;SDS011;40967;52.070;8.596;2023-05-20T11:04:00;2.65;;;1.48;;
55069;SDS011;40967;52.070;8.596;2023-05-20T11:06:28;2.63;;;1.35;;
55069;SDS011;40967;52.070;8.596;2023-05-20T11:08:53;3.08;;;1.60;;
55069;SDS011;40967;52.070;8.596;2023-05-20T11:11:20;2.35;;;1.30;;
55069;SDS011;40967;52.070;8.596;2023-05-20T11:13:49;3.22;;;1.65;;
55069;SDS011;40967;52.070;8.596;2023-05-20T11:16:16;3.47;;;1.47;;
55069;SDS011;40967;52.070;8.596;2023-05-20T11:18:42;3.42;;;1.58;;
55069;SDS011;40967;52.070;8.596;2023-05-20T11:21:12;4.47;;;1.83;;
55069;SDS011;40967;52.070;8.596;2023-05-20T11:23:37;2.63;;;1.50;;
55069;SDS011;40967;52.070;8.596;2023-05-20T11:26:03;2.73;;;1.47;;
55069;SDS011;40967;52.070;8.596;2023-05-20T11:28:29;2.07;;;1.30;;
55069;SDS011;40967;52.070;8.596;2023-05-20T11:30:58;2.43;;;1.30;;
55069;SDS011;40967;52.070;8.596;2023-05-20T11:33:24;1.60;;;1.08;;
55069;SDS011;40967;52.070;8.596;2023-05-20T11:35:51;3.10;;;1.27;;
55069;SDS011;40967;52.070;8.596;2023-05-20T11:38:17;2.25;;;1.30;;
55069;SDS011;40967;52.070;8.596;2023-05-20T11:40:54;2.20;;;1.27;;
55069;SDS011;40967;52.070;8.596;2023-05-20T11:43:20;2.97;;;1.27;;
55069;SDS011;40967;52.070;8.596;2023-05-20T11:45:54;3.30;;;1.50;;
55069;SDS011;40967;52.070;8.596;2023-05-20T11:48:23;1.83;;;1.10;;
55069;SDS011;40967;52.070;8.596;2023-05-20T11:50:49;3.08;;;1.13;;
55069;SDS011;40967;52.070;8.596;2023-05-20T11:53:18;2.10;;;1.17;;
55069;SDS011;40967;52.070;8.596;2023-05-20T11:58:14;1.85;;;1.10;;
55069;SDS011;40967;52.070;8.596;2023-05-20T12:00:41;2.08;;;1.08;;
55069;SDS011;40967;52.070;8.596;2023-05-20T12:03:06;2.20;;;1.20;;
55069;SDS011;40967;52.070;8.596;2023-05-20T12:05:32;2.08;;;1.10;;
55069;SDS011;40967;52.070;8.596;2023-05-20T12:07:57;2.30;;;1.20;;
55069;SDS011;40967;52.070;8.596;2023-05-20T12:10:22;2.20;;;1.02;;
55069;SDS011;40967;52.070;8.596;2023-05-20T12:12:48;2.22;;;1.15;;
55069;SDS011;40967;52.070;8.596;2023-05-20T12:15:13;1.63;;;0.90;;
55069;SDS011;40967;52.070;8.596;2023-05-20T12:17:46;1.98;;;1.08;;
55069;SDS011;40967;52.070;8.596;2023-05-20T12:20:16;1.50;;;0.90;;
55069;SDS011;40967;52.070;8.596;2023-05-20T12:22:45;1.38;;;0.98;;
55069;SDS011;40967;52.070;8.596;2023-05-20T12:25:11;1.57;;;0.93;;
55069;SDS011;40967;52.070;8.596;2023-05-20T12:27:38;1.83;;;1.03;;
55069;SDS011;40967;52.070;8.596;2023-05-20T12:30:05;1.50;;;0.90;;
55069;SDS011;40967;52.070;8.596;2023-05-20T12:32:31;1.30;;;0.70;;
55069;SDS011;40967;52.070;8.596;2023-05-20T12:34:57;2.70;;;0.90;;
55069;SDS011;40967;52.070;8.596;2023-05-20T12:37:22;1.33;;;0.82;;
55069;SDS011;40967;52.070;8.596;2023-05-20T12:39:48;1.25;;;0.80;;
55069;SDS011;40967;52.070;8.596;2023-05-20T12:42:13;1.40;;;0.70;;
55069;SDS011;40967;52.070;8.596;2023-05-20T12:44:39;1.80;;;0.90;;
55069;SDS011;40967;52.070;8.596;2023-05-20T12:47:04;1.75;;;1.05;;
55069;SDS011;40967;52.070;8.596;2023-05-20T12:49:29;1.80;;;0.98;;
55069;SDS011;40967;52.070;8.596;2023-05-20T12:51:55;2.63;;;1.27;;
55069;SDS011;40967;52.070;8.596;2023-05-20T12:54:20;2.90;;;1.03;;
55069;SDS011;40967;52.070;8.596;2023-05-20T12:56:46;1.70;;;1.00;;
55069;SDS011;40967;52.070;8.596;2023-05-20T12:59:12;1.25;;;0.80;;
55069;SDS011;40967;52.070;8.596;2023-05-20T13:01:38;2.63;;;0.88;;
55069;SDS011;40967;52.070;8.596;2023-05-20T13:04:04;1.90;;;0.82;;
55069;SDS011;40967;52.070;8.596;2023-05-20T13:06:30;2.07;;;1.07;;
55069;SDS011;40967;52.070;8.596;2023-05-20T13:08:56;2.25;;;1.10;;
55069;SDS011;40967;52.070;8.596;2023-05-20T13:11:24;1.80;;;0.97;;
55069;SDS011;40967;52.070;8.596;2023-05-20T13:13:49;1.77;;;1.10;;
55069;SDS011;40967;52.070;8.596;2023-05-20T13:16:15;2.17;;;1.00;;
55069;SDS011;40967;52.070;8.596;2023-05-20T13:18:42;1.42;;;0.88;;
55069;SDS011;40967;52.070;8.596;2023-05-20T13:21:07;1.40;;;0.83;;
55069;SDS011;40967;52.070;8.596;2023-05-20T13:23:33;1.92;;;0.90;;
55069;SDS011;40967;52.070;8.596;2023-05-20T13:25:58;1.98;;;1.00;;
55069;SDS011;40967;52.070;8.596;2023-05-20T13:28:24;1.50;;;0.82;;
55069;SDS011;40967;52.070;8.596;2023-05-20T13:30:50;1.67;;;0.98;;
55069;SDS011;40967;52.070;8.596;2023-05-20T13:33:15;1.90;;;1.00;;
55069;SDS011;40967;52.070;8.596;2023-05-20T13:35:43;1.93;;;1.00;;
55069;SDS011;40967;52.070;8.596;2023-05-20T13:38:09;2.00;;;1.00;;
55069;SDS011;40967;52.070;8.596;2023-05-20T13:40:34;1.73;;;0.97;;
55069;SDS011;40967;52.070;8.596;2023-05-20T13:43:00;2.33;;;1.20;;
55069;SDS011;40967;52.070;8.596;2023-05-20T13:45:25;1.90;;;1.00;;
55069;SDS011;40967;52.070;8.596;2023-05-20T13:47:51;2.00;;;1.27;;
55069;SDS011;40967;52.070;8.596;2023-05-20T13:50:17;1.35;;;0.80;;
55069;SDS011;40967;52.070;8.596;2023-05-20T13:52:42;1.63;;;0.77;;
55069;SDS011;40967;52.070;8.596;2023-05-20T13:55:08;1.70;;;0.90;;
55069;SDS011;40967;52.070;8.596;2023-05-20T13:57:33;2.85;;;1.10;;
55069;SDS011;40967;52.070;8.596;2023-05-20T13:59:59;1.57;;;0.87;;
55069;SDS011;40967;52.070;8.596;2023-05-20T14:02:24;1.90;;;1.00;;
55069;SDS011;40967;52.070;8.596;2023-05-20T14:04:50;1.80;;;1.00;;
55069;SDS011;40967;52.070;8.596;2023-05-20T14:07:16;1.95;;;1.10;;
55069;SDS011;40967;52.070;8.596;2023-05-20T14:09:41;1.53;;;0.93;;
55069;SDS011;40967;52.070;8.596;2023-05-20T14:12:07;1.75;;;1.05;;
55069;SDS011;40967;52.070;8.596;2023-05-20T14:14:32;2.20;;;1.00;;
55069;SDS011;40967;52.070;8.596;2023-05-20T14:16:58;1.93;;;1.03;;
55069;SDS011;40967;52.070;8.596;2023-05-20T14:19:23;1.80;;;1.00;;
55069;SDS011;40967;52.070;8.596;2023-05-20T14:21:50;1.70;;;1.00;;
55069;SDS011;40967;52.070;8.596;2023-05-20T14:24:15;1.53;;;0.90;;
55069;SDS011;40967;52.070;8.596;2023-05-20T14:26:41;2.28;;;1.10;;
55069;SDS011;40967;52.070;8.596;2023-05-20T14:29:06;2.10;;;1.10;;
55069;SDS011;40967;52.070;8.596;2023-05-20T14:31:32;2.78;;;1.27;;
55069;SDS011;40967;52.070;8.596;2023-05-20T14:33:57;2.78;;;1.30;;
55069;SDS011;40967;52.070;8.596;2023-05-20T14:36:23;2.78;;;1.40;;
55069;SDS011;40967;52.070;8.596;2023-05-20T14:38:48;2.10;;;1.20;;
55069;SDS011;40967;52.070;8.596;2023-05-20T14:41:14;2.47;;;1.30;;
55069;SDS011;40967;52.070;8.596;2023-05-20T14:43:39;2.07;;;1.30;;
55069;SDS011;40967;52.070;8.596;2023-05-20T14:46:05;1.77;;;1.13;;
55069;SDS011;40967;52.070;8.596;2023-05-20T14:48:30;2.57;;;1.20;;
55069;SDS011;40967;52.070;8.596;2023-05-20T14:50:56;2.63;;;1.40;;
55069;SDS011;40967;52.070;8.596;2023-05-20T14:53:22;3.45;;;1.65;;
55069;SDS011;40967;52.070;8.596;2023-05-20T14:55:47;2.70;;;1.45;;
55069;SDS011;40967;52.070;8.596;2023-05-20T14:58:12;2.30;;;1.33;;
55069;SDS011;40967;52.070;8.596;2023-05-20T15:00:38;2.80;;;1.40;;
55069;SDS011;40967;52.070;8.596;2023-05-20T15:03:06;2.67;;;1.40;;
55069;SDS011;40967;52.070;8.596;2023-05-20T15:05:32;3.00;;;1.70;;
55069;SDS011;40967;52.070;8.596;2023-05-20T15:07:57;2.77;;;1.70;;